createdAt,value
2023-05-21T00:00:15.564Z,64.48
2023-05-21T00:03:03.674Z,62.62
2023-05-21T00:05:32.711Z,61.19
2023-05-21T00:08:00.745Z,59.08
2023-05-21T00:10:28.664Z,58.36
2023-05-21T00:12:56.563Z,60.37
2023-05-21T00:15:24.632Z,64.56
2023-05-21T00:17:52.897Z,65.14
2023-05-21T00:20:20.875Z,63.56
2023-05-21T00:22:49.269Z,62.17
2023-05-21T00:25:17.257Z,60.81
2023-05-21T00:27:45.363Z,58.68
2023-05-21T00:30:13.344Z,58.35
2023-05-21T00:32:41.313Z,59.85
2023-05-21T00:35:09.504Z,64.08
2023-05-21T00:37:38.292Z,64.49
2023-05-21T00:40:08.851Z,62.53
2023-05-21T00:42:40.758Z,60.75
2023-05-21T00:45:09.346Z,58.30
2023-05-21T00:47:37.726Z,58.38
2023-05-21T00:50:06.715Z,59.65
2023-05-21T00:52:41.918Z,64.40
2023-05-21T00:55:11.139Z,64.37
2023-05-21T00:57:40.273Z,61.30
2023-05-21T01:00:09.158Z,58.47
2023-05-21T01:02:38.314Z,57.93
2023-05-21T01:05:07.327Z,59.49
2023-05-21T01:07:39.087Z,64.41
2023-05-21T01:10:09.817Z,63.80
2023-05-21T01:12:40.395Z,60.99
2023-05-21T01:15:09.149Z,57.71
2023-05-21T01:17:39.240Z,57.86
2023-05-21T01:20:11.242Z,59.28
2023-05-21T01:22:43.835Z,63.46
2023-05-21T01:25:12.295Z,63.70
2023-05-21T01:27:40.344Z,60.89
2023-05-21T01:30:08.844Z,57.52
2023-05-21T01:32:48.845Z,58.07
2023-05-21T01:35:26.312Z,59.47
2023-05-21T01:38:13.304Z,63.87
2023-05-21T01:40:55.689Z,63.69
2023-05-21T01:43:25.138Z,61.00
2023-05-21T01:45:56.012Z,57.48
2023-05-21T01:48:27.385Z,57.34
2023-05-21T01:51:01.997Z,59.50
2023-05-21T01:53:30.062Z,60.37
2023-05-21T01:55:59.437Z,64.18
2023-05-21T01:58:27.731Z,63.96
2023-05-21T02:00:57.174Z,61.61
2023-05-21T02:03:28.214Z,58.42
2023-05-21T02:05:57.011Z,57.80
2023-05-21T02:08:25.722Z,58.81
2023-05-21T02:10:53.682Z,60.73
2023-05-21T02:13:25.748Z,63.85
2023-05-21T02:15:55.240Z,64.78
2023-05-21T02:18:23.857Z,61.03
2023-05-21T02:20:51.777Z,57.56
2023-05-21T02:23:19.790Z,56.54
2023-05-21T02:25:47.781Z,58.22
2023-05-21T02:28:16.030Z,59.77
2023-05-21T02:30:44.000Z,63.39
2023-05-21T02:33:14.519Z,63.69
2023-05-21T02:35:44.103Z,61.11
2023-05-21T02:38:13.783Z,57.70
2023-05-21T02:40:42.116Z,56.90
2023-05-21T02:43:10.104Z,57.76
2023-05-21T02:45:38.491Z,59.04
2023-05-21T02:48:06.886Z,62.94
2023-05-21T02:50:37.464Z,63.87
2023-05-21T02:53:06.420Z,61.52
2023-05-21T02:55:35.466Z,58.20
2023-05-21T02:58:03.703Z,57.25
2023-05-21T03:00:31.989Z,58.37
2023-05-21T03:03:01.375Z,60.32
2023-05-21T03:05:29.390Z,63.83
2023-05-21T03:07:57.624Z,64.15
2023-05-21T03:10:25.673Z,61.71
2023-05-21T03:12:55.007Z,57.91
2023-05-21T03:15:25.986Z,57.52
2023-05-21T03:17:54.498Z,58.82
2023-05-21T03:20:24.675Z,60.74
2023-05-21T03:22:53.116Z,64.06
2023-05-21T03:25:21.783Z,64.35
2023-05-21T03:27:49.982Z,61.36
2023-05-21T03:30:38.459Z,58.43
2023-05-21T03:33:32.496Z,58.14
2023-05-21T03:36:01.292Z,60.29
2023-05-21T03:38:31.671Z,63.62
2023-05-21T03:40:59.689Z,64.34
2023-05-21T03:43:28.092Z,61.52
2023-05-21T03:45:56.491Z,57.62
2023-05-21T03:48:53.312Z,57.25
2023-05-21T03:51:22.968Z,59.09
2023-05-21T03:53:51.758Z,60.21
2023-05-21T03:56:19.798Z,64.57
2023-05-21T03:58:48.950Z,64.25
2023-05-21T04:01:17.934Z,61.89
2023-05-21T04:03:47.249Z,58.21
2023-05-21T04:06:16.085Z,57.08
2023-05-21T04:08:44.694Z,59.71
2023-05-21T04:11:12.701Z,60.29
2023-05-21T04:13:40.724Z,64.00
2023-05-21T04:16:14.747Z,64.16
2023-05-21T04:18:45.536Z,61.46
2023-05-21T04:21:14.147Z,57.39
2023-05-21T04:23:42.276Z,56.63
2023-05-21T04:26:36.586Z,56.76
2023-05-21T04:29:05.141Z,59.09
2023-05-21T04:31:33.632Z,59.62
2023-05-21T04:34:02.265Z,62.80
2023-05-21T04:36:30.601Z,63.69
2023-05-21T04:38:58.603Z,58.95
2023-05-21T04:41:26.873Z,56.64
2023-05-21T04:43:55.482Z,57.04
2023-05-21T04:46:25.424Z,58.52
2023-05-21T04:48:58.245Z,59.24
2023-05-21T04:51:26.901Z,60.56
2023-05-21T04:53:54.925Z,63.92
2023-05-21T04:56:22.976Z,63.48
2023-05-21T04:58:50.937Z,59.02
2023-05-21T05:01:19.224Z,56.64
2023-05-21T05:03:47.417Z,56.60
2023-05-21T05:06:15.523Z,57.63
2023-05-21T05:08:43.623Z,58.27
2023-05-21T05:11:12.281Z,60.09
2023-05-21T05:13:43.845Z,60.30
2023-05-21T05:16:13.090Z,61.74
2023-05-21T05:18:42.695Z,64.46
2023-05-21T05:21:11.106Z,62.96
2023-05-21T05:23:39.058Z,58.16
2023-05-21T05:26:08.514Z,55.93
2023-05-21T05:28:36.554Z,56.68
2023-05-21T05:31:04.801Z,56.93
2023-05-21T05:33:33.544Z,58.56
2023-05-21T05:36:01.641Z,59.77
2023-05-21T05:38:29.737Z,59.87
2023-05-21T05:40:57.834Z,60.22
2023-05-21T05:43:26.675Z,60.49
2023-05-21T05:45:56.543Z,60.41
2023-05-21T05:48:25.036Z,60.84
2023-05-21T05:50:55.077Z,63.79
2023-05-21T05:53:23.838Z,63.68
2023-05-21T05:55:51.883Z,57.76
2023-05-21T05:58:19.930Z,55.48
2023-05-21T06:00:54.744Z,55.99
2023-05-21T06:03:22.805Z,56.82
2023-05-21T06:05:53.718Z,57.46
2023-05-21T06:08:23.436Z,58.50
2023-05-21T06:10:51.486Z,57.69
2023-05-21T06:13:19.598Z,58.38
2023-05-21T06:15:47.694Z,58.63
2023-05-21T06:18:16.012Z,59.14
2023-05-21T06:20:44.061Z,58.70
2023-05-21T06:23:12.814Z,59.57
2023-05-21T06:25:42.594Z,59.76
2023-05-21T06:28:10.638Z,59.01
2023-05-21T06:30:39.370Z,59.21
2023-05-21T06:33:07.740Z,59.71
2023-05-21T06:35:37.589Z,59.77
2023-05-21T06:38:06.233Z,59.74
2023-05-21T06:40:34.930Z,59.27
2023-05-21T06:43:05.021Z,59.41
2023-05-21T06:45:51.754Z,59.60
2023-05-21T06:48:37.306Z,59.44
2023-05-21T06:51:05.502Z,59.02
2023-05-21T06:53:33.470Z,58.68
2023-05-21T06:56:01.786Z,59.06
2023-05-21T06:58:42.536Z,59.20
2023-05-21T07:01:12.033Z,59.03
2023-05-21T07:03:40.208Z,58.80
2023-05-21T07:06:09.362Z,58.57
2023-05-21T07:08:37.383Z,58.34
2023-05-21T07:11:05.520Z,58.34
2023-05-21T07:13:36.313Z,58.43
2023-05-21T07:16:04.921Z,58.36
2023-05-21T07:18:32.922Z,58.08
2023-05-21T07:21:01.174Z,57.96
2023-05-21T07:23:29.381Z,57.85
2023-05-21T07:25:57.401Z,57.18
2023-05-21T07:28:25.788Z,56.59
2023-05-21T07:30:53.961Z,56.58
2023-05-21T07:33:27.172Z,56.46
2023-05-21T07:35:55.315Z,56.08
2023-05-21T07:38:23.357Z,56.26
2023-05-21T07:40:51.361Z,55.94
2023-05-21T07:43:19.328Z,54.85
2023-05-21T07:45:47.429Z,54.05
2023-05-21T07:48:16.118Z,53.36
2023-05-21T07:50:53.210Z,53.35
2023-05-21T07:53:21.413Z,53.44
2023-05-21T07:55:50.540Z,53.21
2023-05-21T07:58:23.562Z,53.31
2023-05-21T08:00:51.807Z,53.04
2023-05-21T08:03:20.578Z,52.84
2023-05-21T08:05:49.307Z,52.45
2023-05-21T08:08:22.248Z,51.96
2023-05-21T08:10:53.193Z,51.81
2023-05-21T08:13:22.364Z,51.13
2023-05-21T08:15:52.860Z,50.99
2023-05-21T08:18:24.110Z,50.73
2023-05-21T08:20:52.994Z,50.74
2023-05-21T08:23:21.408Z,50.77
2023-05-21T08:25:53.747Z,50.46
2023-05-21T08:28:23.680Z,50.29
2023-05-21T08:30:52.740Z,50.26
2023-05-21T08:33:23.162Z,50.65
2023-05-21T08:35:51.643Z,49.56
2023-05-21T08:38:24.343Z,48.67
2023-05-21T08:41:01.218Z,48.46
2023-05-21T08:43:31.446Z,48.58
2023-05-21T08:46:01.012Z,47.73
2023-05-21T08:48:32.781Z,47.21
2023-05-21T08:51:01.617Z,47.24
2023-05-21T08:53:35.587Z,47.00
2023-05-21T08:56:07.037Z,46.08
2023-05-21T08:58:55.416Z,46.75
2023-05-21T09:01:28.133Z,45.27
2023-05-21T09:04:19.092Z,45.29
2023-05-21T09:06:50.532Z,45.75
2023-05-21T09:09:33.351Z,43.66
2023-05-21T09:12:01.922Z,43.79
2023-05-21T09:14:31.185Z,43.86
2023-05-21T09:17:15.459Z,44.18
2023-05-21T09:20:16.699Z,43.37
2023-05-21T09:22:55.754Z,42.49
2023-05-21T09:25:28.415Z,42.05
2023-05-21T09:27:57.422Z,42.56
2023-05-21T09:30:28.701Z,42.36
2023-05-21T09:33:00.283Z,42.02
2023-05-21T09:35:29.382Z,42.02
2023-05-21T09:38:03.664Z,42.80
2023-05-21T09:40:35.700Z,42.03
2023-05-21T09:43:05.366Z,42.22
2023-05-21T09:45:34.541Z,41.71
2023-05-21T09:48:03.587Z,41.26
2023-05-21T09:50:36.588Z,41.44
2023-05-21T09:53:12.651Z,39.58
2023-05-21T09:55:42.042Z,39.35
2023-05-21T09:58:11.271Z,40.13
2023-05-21T10:00:40.265Z,41.00
2023-05-21T10:03:10.070Z,40.68
2023-05-21T10:05:38.731Z,40.01
2023-05-21T10:08:09.292Z,39.86
2023-05-21T10:10:40.916Z,40.04
2023-05-21T10:13:11.553Z,40.19
2023-05-21T10:15:46.477Z,39.75
2023-05-21T10:18:17.130Z,39.48
2023-05-21T10:20:46.651Z,40.03
2023-05-21T10:23:14.619Z,40.70
2023-05-21T10:25:43.092Z,39.56
2023-05-21T10:28:16.235Z,39.81
2023-05-21T10:30:45.020Z,39.02
2023-05-21T10:33:16.826Z,39.54
2023-05-21T10:35:48.301Z,39.77
2023-05-21T10:38:19.385Z,40.24
2023-05-21T10:40:49.671Z,39.89
2023-05-21T10:43:35.983Z,38.98
2023-05-21T10:46:23.525Z,38.45
2023-05-21T10:49:04.841Z,38.67
2023-05-21T10:52:04.655Z,37.79
2023-05-21T10:55:06.512Z,37.67
2023-05-21T10:57:44.836Z,38.81
2023-05-21T11:00:16.375Z,38.76
2023-05-21T11:02:46.087Z,38.42
2023-05-21T11:05:14.391Z,38.20
2023-05-21T11:07:54.019Z,38.26
2023-05-21T11:10:41.628Z,38.86
2023-05-21T11:13:25.042Z,38.62
2023-05-21T11:16:05.556Z,38.09
2023-05-21T11:18:36.955Z,38.49
2023-05-21T11:21:14.034Z,38.47
2023-05-21T11:23:49.677Z,39.24
2023-05-21T11:26:26.478Z,39.51
2023-05-21T11:29:03.494Z,39.20
2023-05-21T11:31:39.738Z,39.09
2023-05-21T11:34:28.885Z,38.43
2023-05-21T11:37:25.110Z,38.05
2023-05-21T11:39:53.611Z,38.04
2023-05-21T11:42:32.711Z,38.64
2023-05-21T11:45:03.876Z,39.24
2023-05-21T11:47:32.878Z,37.49
2023-05-21T11:50:03.527Z,37.21
2023-05-21T11:52:33.071Z,37.99
2023-05-21T11:55:01.193Z,38.30
2023-05-21T11:57:32.883Z,37.66
2023-05-21T12:00:06.451Z,37.06
2023-05-21T12:03:01.307Z,37.79
2023-05-21T12:05:29.337Z,38.17
2023-05-21T12:07:58.778Z,38.28
2023-05-21T12:10:26.843Z,38.37
2023-05-21T12:12:57.260Z,38.44
2023-05-21T12:15:27.205Z,37.95
2023-05-21T12:18:01.366Z,37.82
2023-05-21T12:20:29.458Z,37.49
2023-05-21T12:22:59.080Z,37.85
2023-05-21T12:25:28.397Z,38.07
2023-05-21T12:27:58.406Z,38.42
2023-05-21T12:30:27.240Z,38.49
2023-05-21T12:32:58.492Z,38.24
2023-05-21T12:35:26.625Z,37.87
2023-05-21T12:37:54.814Z,37.82
2023-05-21T12:40:37.468Z,37.46
2023-05-21T12:43:06.198Z,36.90
2023-05-21T12:45:34.458Z,36.40
2023-05-21T12:48:05.684Z,36.60
2023-05-21T12:50:33.962Z,37.79
2023-05-21T12:53:01.966Z,37.45
2023-05-21T12:55:33.340Z,37.19
2023-05-21T12:58:10.830Z,37.53
2023-05-21T13:00:43.642Z,37.63
2023-05-21T13:03:11.780Z,37.79
2023-05-21T13:05:42.764Z,38.40
2023-05-21T13:08:11.437Z,37.97
2023-05-21T13:10:39.718Z,38.03
2023-05-21T13:13:08.380Z,37.39
2023-05-21T13:15:36.425Z,37.57
2023-05-21T13:18:04.471Z,37.69
2023-05-21T13:20:35.045Z,37.88
2023-05-21T13:23:09.824Z,38.12
2023-05-21T13:25:40.057Z,37.69
2023-05-21T13:28:15.419Z,37.07
2023-05-21T13:30:43.632Z,37.43
2023-05-21T13:33:12.403Z,37.75
2023-05-21T13:35:40.973Z,37.58
2023-05-21T13:38:09.029Z,38.02
2023-05-21T13:40:39.049Z,37.68
2023-05-21T13:43:07.714Z,37.43
2023-05-21T13:45:35.908Z,38.06
2023-05-21T13:48:04.127Z,37.69
2023-05-21T13:50:32.137Z,38.09
2023-05-21T13:53:00.236Z,37.25
2023-05-21T13:55:28.195Z,37.22
2023-05-21T13:57:56.118Z,37.44
2023-05-21T14:00:24.119Z,37.22
2023-05-21T14:02:52.495Z,37.74
2023-05-21T14:05:20.897Z,37.82
2023-05-21T14:07:48.954Z,37.57
2023-05-21T14:10:17.292Z,37.43
2023-05-21T14:12:46.166Z,37.47
2023-05-21T14:15:14.326Z,37.64
2023-05-21T14:17:42.524Z,37.88
2023-05-21T14:20:11.261Z,37.58
2023-05-21T14:22:39.313Z,37.21
2023-05-21T14:25:07.624Z,36.60
2023-05-21T14:27:38.108Z,36.19
2023-05-21T14:30:07.021Z,36.32
2023-05-21T14:32:35.087Z,36.35
2023-05-21T14:35:03.233Z,35.89
2023-05-21T14:37:31.328Z,35.56
2023-05-21T14:39:59.325Z,34.81
2023-05-21T14:42:27.311Z,35.23
2023-05-21T14:44:55.312Z,35.26
2023-05-21T14:47:26.193Z,35.20
2023-05-21T14:49:54.238Z,34.89
2023-05-21T14:52:22.236Z,34.82
2023-05-21T14:54:50.188Z,34.66
2023-05-21T14:57:18.164Z,35.06
2023-05-21T14:59:46.437Z,34.85
2023-05-21T15:02:14.675Z,34.90
2023-05-21T15:04:42.737Z,35.55
2023-05-21T15:07:10.937Z,35.31
2023-05-21T15:09:38.874Z,34.66
2023-05-21T15:12:06.989Z,34.55
2023-05-21T15:14:34.922Z,34.93
2023-05-21T15:17:03.222Z,35.25
2023-05-21T15:19:31.375Z,35.58
2023-05-21T15:22:01.072Z,35.91
2023-05-21T15:24:30.926Z,36.73
2023-05-21T15:26:58.903Z,36.59
2023-05-21T15:29:27.017Z,36.56
2023-05-21T15:31:55.038Z,36.78
2023-05-21T15:34:23.174Z,36.51
2023-05-21T15:36:51.186Z,35.82
2023-05-21T15:39:19.204Z,35.45
2023-05-21T15:41:47.163Z,35.09
2023-05-21T15:44:15.352Z,35.03
2023-05-21T15:46:43.409Z,35.34
2023-05-21T15:49:11.414Z,35.70
2023-05-21T15:51:40.452Z,35.43
2023-05-21T15:54:08.419Z,35.14
2023-05-21T15:56:36.553Z,34.94
2023-05-21T15:59:04.618Z,35.09
2023-05-21T16:01:33.395Z,35.08
2023-05-21T16:04:03.521Z,35.04
2023-05-21T16:06:31.714Z,34.89
2023-05-21T16:09:00.553Z,34.84
2023-05-21T16:11:29.478Z,35.06
2023-05-21T16:13:57.452Z,35.21
2023-05-21T16:16:25.731Z,34.95
2023-05-21T16:18:54.422Z,34.80
2023-05-21T16:21:22.471Z,34.74
2023-05-21T16:23:50.903Z,34.66
2023-05-21T16:26:18.891Z,34.83
2023-05-21T16:28:47.050Z,34.91
2023-05-21T16:31:15.196Z,34.99
2023-05-21T16:33:43.380Z,35.01
2023-05-21T16:36:11.480Z,35.39
2023-05-21T16:38:39.962Z,35.01
2023-05-21T16:41:08.024Z,35.12
2023-05-21T16:43:36.398Z,35.02
2023-05-21T16:46:04.420Z,35.18
2023-05-21T16:48:32.955Z,35.16
2023-05-21T16:51:01.145Z,35.38
2023-05-21T16:53:29.151Z,35.72
2023-05-21T16:55:57.133Z,36.12
2023-05-21T16:58:25.281Z,36.38
2023-05-21T17:00:53.331Z,36.65
2023-05-21T17:03:21.514Z,36.62
2023-05-21T17:05:49.904Z,37.03
2023-05-21T17:08:17.994Z,36.79
2023-05-21T17:10:45.966Z,36.75
2023-05-21T17:13:21.497Z,36.97
2023-05-21T17:15:51.631Z,36.97
2023-05-21T17:18:19.853Z,37.03
2023-05-21T17:20:47.920Z,36.24
2023-05-21T17:23:16.320Z,36.09
2023-05-21T17:25:45.512Z,36.02
2023-05-21T17:28:13.682Z,35.62
2023-05-21T17:30:43.301Z,35.05
2023-05-21T17:33:12.352Z,35.01
2023-05-21T17:35:40.516Z,34.89
2023-05-21T17:38:08.811Z,35.28
2023-05-21T17:40:36.979Z,35.50
2023-05-21T17:43:05.268Z,36.05
2023-05-21T17:45:33.441Z,36.32
2023-05-21T17:48:01.603Z,36.91
2023-05-21T17:50:30.030Z,37.96
2023-05-21T17:52:58.090Z,38.71
2023-05-21T17:55:26.066Z,39.89
2023-05-21T17:57:54.033Z,40.67
2023-05-21T18:00:22.314Z,41.89
2023-05-21T18:02:50.359Z,42.50
2023-05-21T18:05:18.948Z,43.83
2023-05-21T18:07:47.106Z,43.68
2023-05-21T18:10:16.092Z,44.78
2023-05-21T18:12:47.116Z,45.30
2023-05-21T18:15:15.822Z,45.90
2023-05-21T18:17:44.224Z,46.19
2023-05-21T18:20:12.970Z,47.09
2023-05-21T18:22:41.006Z,47.31
2023-05-21T18:25:09.564Z,47.96
2023-05-21T18:27:37.545Z,48.50
2023-05-21T18:30:07.015Z,48.79
2023-05-21T18:32:35.171Z,49.44
2023-05-21T18:35:03.519Z,49.73
2023-05-21T18:37:31.538Z,49.93
2023-05-21T18:39:59.551Z,49.89
2023-05-21T18:42:28.367Z,50.44
2023-05-21T18:44:56.455Z,50.64
2023-05-21T18:47:25.096Z,50.76
2023-05-21T18:49:53.109Z,51.21
2023-05-21T18:52:21.540Z,51.59
2023-05-21T18:54:49.893Z,51.82
2023-05-21T18:57:18.747Z,52.19
2023-05-21T18:59:47.528Z,52.91
2023-05-21T19:02:16.136Z,53.18
2023-05-21T19:04:44.670Z,53.45
2023-05-21T19:07:13.322Z,53.49
2023-05-21T19:09:41.844Z,54.03
2023-05-21T19:12:10.276Z,54.20
2023-05-21T19:14:39.153Z,54.35
2023-05-21T19:17:08.591Z,54.44
2023-05-21T19:19:36.734Z,54.83
2023-05-21T19:22:05.109Z,55.12
2023-05-21T19:24:33.226Z,55.18
2023-05-21T19:27:01.330Z,55.43
2023-05-21T19:29:29.308Z,55.41
2023-05-21T19:31:57.454Z,55.64
2023-05-21T19:34:26.895Z,55.57
2023-05-21T19:36:54.945Z,55.52
2023-05-21T19:39:23.420Z,55.62
2023-05-21T19:41:53.048Z,55.71
2023-05-21T19:44:21.083Z,55.75
2023-05-21T19:46:50.294Z,55.54
2023-05-21T19:49:20.087Z,55.70
2023-05-21T19:51:49.513Z,55.56
2023-05-21T19:54:18.677Z,55.56
2023-05-21T19:56:46.947Z,55.26
2023-05-21T19:59:14.928Z,55.43
2023-05-21T20:01:44.327Z,55.12
2023-05-21T20:04:13.465Z,55.02
2023-05-21T20:06:41.617Z,55.00
2023-05-21T20:09:12.090Z,54.66
2023-05-21T20:11:42.369Z,54.49
2023-05-21T20:14:10.822Z,54.51
2023-05-21T20:16:38.863Z,54.53
2023-05-21T20:19:12.667Z,54.40
2023-05-21T20:21:40.836Z,54.51
2023-05-21T20:24:08.912Z,54.51
2023-05-21T20:26:37.035Z,54.67
2023-05-21T20:29:06.618Z,54.60
2023-05-21T20:31:35.024Z,54.70
2023-05-21T20:34:07.759Z,54.88
2023-05-21T20:36:36.494Z,54.98
2023-05-21T20:39:05.131Z,55.02
2023-05-21T20:41:37.575Z,55.27
2023-05-21T20:44:06.357Z,55.41
2023-05-21T20:46:38.911Z,55.42
2023-05-21T20:49:08.101Z,55.46
2023-05-21T20:51:36.172Z,55.59
2023-05-21T20:54:04.586Z,55.41
2023-05-21T20:56:42.113Z,55.32
2023-05-21T20:59:12.314Z,55.54
2023-05-21T21:01:41.614Z,55.38
2023-05-21T21:04:10.303Z,55.66
2023-05-21T21:06:39.516Z,55.72
2023-05-21T21:09:08.615Z,55.55
2023-05-21T21:11:37.123Z,55.57
2023-05-21T21:14:05.265Z,55.64
2023-05-21T21:16:33.279Z,55.78
2023-05-21T21:19:01.396Z,55.68
2023-05-21T21:21:29.523Z,55.78
2023-05-21T21:23:57.537Z,55.89
2023-05-21T21:26:25.572Z,55.96
2023-05-21T21:28:53.500Z,56.16
2023-05-21T21:31:21.482Z,56.34
2023-05-21T21:33:49.470Z,56.44
2023-05-21T21:36:17.479Z,56.37
2023-05-21T21:38:45.406Z,56.49
2023-05-21T21:41:13.986Z,56.56
2023-05-21T21:43:42.002Z,56.67
2023-05-21T21:46:10.125Z,56.75
2023-05-21T21:48:38.121Z,56.73
2023-05-21T21:51:08.330Z,56.87
2023-05-21T21:53:36.263Z,56.86
2023-05-21T21:56:04.404Z,56.84
2023-05-21T21:58:32.336Z,56.82
2023-05-21T22:01:00.732Z,56.54
2023-05-21T22:03:32.694Z,56.44
2023-05-21T22:06:01.256Z,56.32
2023-05-21T22:08:29.394Z,56.14
2023-05-21T22:10:57.502Z,55.81
2023-05-21T22:13:27.377Z,55.61
2023-05-21T22:15:57.486Z,55.43
2023-05-21T22:18:39.590Z,55.27
2023-05-21T22:21:14.395Z,55.11
2023-05-21T22:23:42.566Z,55.00
2023-05-21T22:26:10.574Z,54.86
2023-05-21T22:28:38.535Z,54.77
2023-05-21T22:31:07.882Z,54.65
2023-05-21T22:33:36.732Z,54.60
2023-05-21T22:36:05.349Z,54.63
2023-05-21T22:38:33.405Z,54.58
2023-05-21T22:41:01.494Z,54.50
2023-05-21T22:43:29.547Z,54.53
2023-05-21T22:45:57.485Z,54.53
2023-05-21T22:48:26.439Z,54.51
2023-05-21T22:50:54.969Z,54.64
2023-05-21T22:53:23.838Z,54.58
2023-05-21T22:55:52.746Z,54.53
2023-05-21T22:58:20.689Z,54.53
2023-05-21T23:00:48.598Z,54.60
2023-05-21T23:03:16.840Z,54.55
2023-05-21T23:05:45.662Z,54.54
2023-05-21T23:08:14.145Z,54.51
2023-05-21T23:10:42.145Z,54.50
2023-05-21T23:13:10.275Z,54.58
2023-05-21T23:15:39.145Z,54.55
2023-05-21T23:18:08.768Z,54.59
2023-05-21T23:20:37.463Z,54.64
2023-05-21T23:23:06.149Z,54.78
2023-05-21T23:25:34.983Z,54.82
2023-05-21T23:28:05.832Z,54.78
2023-05-21T23:30:34.240Z,54.87
2023-05-21T23:33:02.878Z,54.88
2023-05-21T23:35:34.075Z,54.81
2023-05-21T23:38:02.541Z,54.99
2023-05-21T23:40:30.504Z,54.98
2023-05-21T23:42:58.541Z,55.01
2023-05-21T23:45:26.527Z,55.24
2023-05-21T23:47:54.506Z,55.23
2023-05-21T23:50:24.945Z,55.37
2023-05-21T23:52:52.977Z,55.30
2023-05-21T23:55:20.999Z,55.33
2023-05-21T23:57:48.969Z,55.39
